sensor_id;sensor_type;location;lat;lon;timestamp;temperature;humidity
8172;DHT22;4127;47.908;10.850;2023-02-01T00:18:08;2.60;99.90
8172;DHT22;4127;47.908;10.850;2023-02-01T00:31:11;2.50;99.90
8172;DHT22;4127;47.908;10.850;2023-02-01T00:33:38;2.50;99.90
8172;DHT22;4127;47.908;10.850;2023-02-01T00:36:07;2.50;99.90
8172;DHT22;4127;47.908;10.850;2023-02-01T00:38:36;2.50;99.90
8172;DHT22;4127;47.908;10.850;2023-02-01T00:41:05;2.50;99.90
8172;DHT22;4127;47.908;10.850;2023-02-01T00:43:33;2.50;99.90
8172;DHT22;4127;47.908;10.850;2023-02-01T00:46:00;2.40;99.90
8172;DHT22;4127;47.908;10.850;2023-02-01T00:48:27;2.50;99.90
8172;DHT22;4127;47.908;10.850;2023-02-01T00:50:54;2.50;99.90
8172;DHT22;4127;47.908;10.850;2023-02-01T00:53:21;2.50;99.90
8172;DHT22;4127;47.908;10.850;2023-02-01T00:55:48;2.50;99.90
8172;DHT22;4127;47.908;10.850;2023-02-01T00:58:14;2.50;99.90
8172;DHT22;4127;47.908;10.850;2023-02-01T01:00:41;2.50;99.90
8172;DHT22;4127;47.908;10.850;2023-02-01T01:03:08;2.40;99.90
8172;DHT22;4127;47.908;10.850;2023-02-01T01:05:45;2.40;99.90
8172;DHT22;4127;47.908;10.850;2023-02-01T01:08:12;2.40;99.90
8172;DHT22;4127;47.908;10.850;2023-02-01T01:10:39;2.50;99.90
8172;DHT22;4127;47.908;10.850;2023-02-01T01:13:07;2.40;99.90
8172;DHT22;4127;47.908;10.850;2023-02-01T01:15:40;2.40;99.90
8172;DHT22;4127;47.908;10.850;2023-02-01T01:18:07;2.40;99.90
8172;DHT22;4127;47.908;10.850;2023-02-01T01:20:35;2.40;99.90
8172;DHT22;4127;47.908;10.850;2023-02-01T01:23:03;2.40;99.90
8172;DHT22;4127;47.908;10.850;2023-02-01T01:25:30;2.40;99.90
8172;DHT22;4127;47.908;10.850;2023-02-01T01:27:57;2.40;99.90
8172;DHT22;4127;47.908;10.850;2023-02-01T01:30:24;2.40;99.90
8172;DHT22;4127;47.908;10.850;2023-02-01T01:32:51;2.40;99.90
8172;DHT22;4127;47.908;10.850;2023-02-01T01:35:18;2.40;99.90
8172;DHT22;4127;47.908;10.850;2023-02-01T01:37:45;2.40;99.90
8172;DHT22;4127;47.908;10.850;2023-02-01T01:40:12;2.40;99.90
8172;DHT22;4127;47.908;10.850;2023-02-01T01:42:41;2.40;99.90
8172;DHT22;4127;47.908;10.850;2023-02-01T01:45:24;2.30;99.90
8172;DHT22;4127;47.908;10.850;2023-02-01T01:47:54;2.30;99.90
8172;DHT22;4127;47.908;10.850;2023-02-01T01:50:26;2.20;99.90
8172;DHT22;4127;47.908;10.850;2023-02-01T01:52:55;2.30;99.90
8172;DHT22;4127;47.908;10.850;2023-02-01T01:55:25;2.30;99.90
8172;DHT22;4127;47.908;10.850;2023-02-01T01:57:56;2.30;99.90
8172;DHT22;4127;47.908;10.850;2023-02-01T02:00:24;2.30;99.90
8172;DHT22;4127;47.908;10.850;2023-02-01T02:03:03;2.30;99.90
8172;DHT22;4127;47.908;10.850;2023-02-01T02:05:33;2.40;99.90
8172;DHT22;4127;47.908;10.850;2023-02-01T02:08:00;2.40;99.90
8172;DHT22;4127;47.908;10.850;2023-02-01T02:10:28;2.30;99.90
8172;DHT22;4127;47.908;10.850;2023-02-01T02:13:16;2.30;99.90
8172;DHT22;4127;47.908;10.850;2023-02-01T02:21:30;2.30;99.90
8172;DHT22;4127;47.908;10.850;2023-02-01T02:38:17;2.10;99.90
8172;DHT22;4127;47.908;10.850;2023-02-01T02:40:53;2.10;99.90
8172;DHT22;4127;47.908;10.850;2023-02-01T02:43:48;2.10;99.90
8172;DHT22;4127;47.908;10.850;2023-02-01T02:46:53;2.20;99.90
8172;DHT22;4127;47.908;10.850;2023-02-01T02:49:49;2.20;99.90
8172;DHT22;4127;47.908;10.850;2023-02-01T02:52:41;2.30;99.90
8172;DHT22;4127;47.908;10.850;2023-02-01T02:55:28;2.30;99.90
8172;DHT22;4127;47.908;10.850;2023-02-01T02:57:58;2.30;99.90
8172;DHT22;4127;47.908;10.850;2023-02-01T03:00:44;2.30;99.90
8172;DHT22;4127;47.908;10.850;2023-02-01T03:03:36;2.30;99.90
8172;DHT22;4127;47.908;10.850;2023-02-01T03:06:24;2.30;99.90
8172;DHT22;4127;47.908;10.850;2023-02-01T03:08:51;2.20;99.90
8172;DHT22;4127;47.908;10.850;2023-02-01T03:11:20;2.10;99.90
8172;DHT22;4127;47.908;10.850;2023-02-01T03:13:53;2.10;99.90
8172;DHT22;4127;47.908;10.850;2023-02-01T03:16:22;2.10;99.90
8172;DHT22;4127;47.908;10.850;2023-02-01T03:19:03;2.20;99.90
8172;DHT22;4127;47.908;10.850;2023-02-01T03:22:03;2.20;99.90
8172;DHT22;4127;47.908;10.850;2023-02-01T03:24:40;2.20;99.90
8172;DHT22;4127;47.908;10.850;2023-02-01T03:27:13;2.20;99.90
8172;DHT22;4127;47.908;10.850;2023-02-01T03:30:02;2.20;99.90
8172;DHT22;4127;47.908;10.850;2023-02-01T03:32:36;2.20;99.90
8172;DHT22;4127;47.908;10.850;2023-02-01T03:35:33;2.20;99.90
8172;DHT22;4127;47.908;10.850;2023-02-01T03:40:36;2.20;99.90
8172;DHT22;4127;47.908;10.850;2023-02-01T03:43:05;2.20;99.90
8172;DHT22;4127;47.908;10.850;2023-02-01T03:45:40;2.20;99.90
8172;DHT22;4127;47.908;10.850;2023-02-01T03:48:09;2.20;99.90
8172;DHT22;4127;47.908;10.850;2023-02-01T03:50:38;2.20;99.90
8172;DHT22;4127;47.908;10.850;2023-02-01T03:53:19;2.20;99.90
8172;DHT22;4127;47.908;10.850;2023-02-01T03:55:47;2.20;99.90
8172;DHT22;4127;47.908;10.850;2023-02-01T03:58:20;2.10;99.90
8172;DHT22;4127;47.908;10.850;2023-02-01T04:00:57;2.10;99.90
8172;DHT22;4127;47.908;10.850;2023-02-01T04:03:25;2.10;99.90
8172;DHT22;4127;47.908;10.850;2023-02-01T04:05:53;2.10;99.90
8172;DHT22;4127;47.908;10.850;2023-02-01T04:08:21;2.20;99.90
8172;DHT22;4127;47.908;10.850;2023-02-01T04:10:47;2.10;99.90
8172;DHT22;4127;47.908;10.850;2023-02-01T04:13:14;2.10;99.90
8172;DHT22;4127;47.908;10.850;2023-02-01T04:15:41;2.10;99.90
8172;DHT22;4127;47.908;10.850;2023-02-01T04:18:08;2.10;99.90
8172;DHT22;4127;47.908;10.850;2023-02-01T04:20:35;2.20;99.90
8172;DHT22;4127;47.908;10.850;2023-02-01T04:23:01;2.20;99.90
8172;DHT22;4127;47.908;10.850;2023-02-01T04:25:29;2.10;99.90
8172;DHT22;4127;47.908;10.850;2023-02-01T04:27:56;2.10;99.90
8172;DHT22;4127;47.908;10.850;2023-02-01T04:30:23;2.10;99.90
8172;DHT22;4127;47.908;10.850;2023-02-01T04:32:50;2.10;99.90
8172;DHT22;4127;47.908;10.850;2023-02-01T04:35:17;2.10;99.90
8172;DHT22;4127;47.908;10.850;2023-02-01T04:37:44;2.10;99.90
8172;DHT22;4127;47.908;10.850;2023-02-01T04:40:11;2.10;99.90
8172;DHT22;4127;47.908;10.850;2023-02-01T04:42:38;2.10;99.90
8172;DHT22;4127;47.908;10.850;2023-02-01T04:45:05;2.10;99.90
8172;DHT22;4127;47.908;10.850;2023-02-01T04:47:32;2.10;99.90
8172;DHT22;4127;47.908;10.850;2023-02-01T04:49:59;2.10;99.90
8172;DHT22;4127;47.908;10.850;2023-02-01T04:52:25;2.10;99.90
8172;DHT22;4127;47.908;10.850;2023-02-01T04:54:53;2.10;99.90
8172;DHT22;4127;47.908;10.850;2023-02-01T04:57:25;2.10;99.90
8172;DHT22;4127;47.908;10.850;2023-02-01T04:59:52;2.00;99.90
8172;DHT22;4127;47.908;10.850;2023-02-01T05:02:18;2.10;99.90
8172;DHT22;4127;47.908;10.850;2023-02-01T05:04:45;2.10;99.90
8172;DHT22;4127;47.908;10.850;2023-02-01T05:07:12;2.10;99.90
8172;DHT22;4127;47.908;10.850;2023-02-01T05:09:39;2.10;99.90
8172;DHT22;4127;47.908;10.850;2023-02-01T05:12:06;2.10;99.90
8172;DHT22;4127;47.908;10.850;2023-02-01T05:14:51;2.10;99.90
8172;DHT22;4127;47.908;10.850;2023-02-01T05:17:18;2.10;99.90
8172;DHT22;4127;47.908;10.850;2023-02-01T05:19:44;2.10;99.90
8172;DHT22;4127;47.908;10.850;2023-02-01T05:22:11;2.10;99.90
8172;DHT22;4127;47.908;10.850;2023-02-01T05:24:38;2.20;99.90
8172;DHT22;4127;47.908;10.850;2023-02-01T05:27:05;2.20;99.90
8172;DHT22;4127;47.908;10.850;2023-02-01T05:29:31;2.10;99.90
8172;DHT22;4127;47.908;10.850;2023-02-01T05:31:58;2.20;99.90
8172;DHT22;4127;47.908;10.850;2023-02-01T05:34:40;2.20;99.90
8172;DHT22;4127;47.908;10.850;2023-02-01T05:37:07;2.20;99.90
8172;DHT22;4127;47.908;10.850;2023-02-01T05:39:34;2.20;99.90
8172;DHT22;4127;47.908;10.850;2023-02-01T05:42:01;2.20;99.90
8172;DHT22;4127;47.908;10.850;2023-02-01T05:44:27;2.20;99.90
8172;DHT22;4127;47.908;10.850;2023-02-01T05:46:54;2.20;99.90
8172;DHT22;4127;47.908;10.850;2023-02-01T05:49:21;2.20;99.90
8172;DHT22;4127;47.908;10.850;2023-02-01T05:51:48;2.20;99.90
8172;DHT22;4127;47.908;10.850;2023-02-01T05:54:14;2.20;99.90
8172;DHT22;4127;47.908;10.850;2023-02-01T05:56:41;2.20;99.90
8172;DHT22;4127;47.908;10.850;2023-02-01T05:59:09;2.20;99.90
8172;DHT22;4127;47.908;10.850;2023-02-01T06:01:36;2.20;99.90
8172;DHT22;4127;47.908;10.850;2023-02-01T06:04:02;2.20;99.90
8172;DHT22;4127;47.908;10.850;2023-02-01T06:06:29;2.20;99.90
8172;DHT22;4127;47.908;10.850;2023-02-01T06:08:56;2.20;99.90
8172;DHT22;4127;47.908;10.850;2023-02-01T06:11:23;2.20;99.90
8172;DHT22;4127;47.908;10.850;2023-02-01T06:13:58;2.20;99.90
8172;DHT22;4127;47.908;10.850;2023-02-01T06:16:25;2.20;99.90
8172;DHT22;4127;47.908;10.850;2023-02-01T06:18:52;2.20;99.90
8172;DHT22;4127;47.908;10.850;2023-02-01T06:21:18;2.20;99.90
8172;DHT22;4127;47.908;10.850;2023-02-01T06:23:51;2.20;99.90
8172;DHT22;4127;47.908;10.850;2023-02-01T06:26:18;2.20;99.90
8172;DHT22;4127;47.908;10.850;2023-02-01T06:28:45;2.30;99.90
8172;DHT22;4127;47.908;10.850;2023-02-01T06:36:45;2.30;99.90
8172;DHT22;4127;47.908;10.850;2023-02-01T06:55:15;2.40;99.90
8172;DHT22;4127;47.908;10.850;2023-02-01T06:57:42;2.40;99.90
8172;DHT22;4127;47.908;10.850;2023-02-01T07:00:10;2.30;99.90
8172;DHT22;4127;47.908;10.850;2023-02-01T07:02:36;2.30;99.90
8172;DHT22;4127;47.908;10.850;2023-02-01T07:05:04;2.30;99.90
8172;DHT22;4127;47.908;10.850;2023-02-01T07:07:31;2.30;99.90
8172;DHT22;4127;47.908;10.850;2023-02-01T07:09:58;2.30;99.90
8172;DHT22;4127;47.908;10.850;2023-02-01T07:12:25;2.30;99.90
8172;DHT22;4127;47.908;10.850;2023-02-01T07:14:51;2.30;99.90
8172;DHT22;4127;47.908;10.850;2023-02-01T07:17:18;2.30;99.90
8172;DHT22;4127;47.908;10.850;2023-02-01T07:19:45;2.30;99.90
8172;DHT22;4127;47.908;10.850;2023-02-01T07:22:12;2.30;99.90
8172;DHT22;4127;47.908;10.850;2023-02-01T07:24:39;2.30;99.90
8172;DHT22;4127;47.908;10.850;2023-02-01T07:27:05;2.30;99.90
8172;DHT22;4127;47.908;10.850;2023-02-01T07:29:32;2.30;99.90
8172;DHT22;4127;47.908;10.850;2023-02-01T07:31:59;2.30;99.90
8172;DHT22;4127;47.908;10.850;2023-02-01T07:34:26;2.30;99.90
8172;DHT22;4127;47.908;10.850;2023-02-01T07:36:53;2.30;99.90
8172;DHT22;4127;47.908;10.850;2023-02-01T07:39:20;2.40;99.90
8172;DHT22;4127;47.908;10.850;2023-02-01T07:41:47;2.30;99.90
8172;DHT22;4127;47.908;10.850;2023-02-01T07:44:13;2.40;99.90
8172;DHT22;4127;47.908;10.850;2023-02-01T07:46:40;2.40;99.90
8172;DHT22;4127;47.908;10.850;2023-02-01T07:49:07;2.40;99.90
8172;DHT22;4127;47.908;10.850;2023-02-01T07:51:34;2.40;99.90
8172;DHT22;4127;47.908;10.850;2023-02-01T07:54:00;2.40;99.90
8172;DHT22;4127;47.908;10.850;2023-02-01T07:56:27;2.40;99.90
8172;DHT22;4127;47.908;10.850;2023-02-01T07:58:54;2.40;99.90
8172;DHT22;4127;47.908;10.850;2023-02-01T08:01:24;2.40;99.90
8172;DHT22;4127;47.908;10.850;2023-02-01T08:04:00;2.40;99.90
8172;DHT22;4127;47.908;10.850;2023-02-01T08:06:29;2.40;99.90
8172;DHT22;4127;47.908;10.850;2023-02-01T08:08:57;2.40;99.90
8172;DHT22;4127;47.908;10.850;2023-02-01T08:11:25;2.50;99.90
8172;DHT22;4127;47.908;10.850;2023-02-01T08:13:53;2.50;99.90
8172;DHT22;4127;47.908;10.850;2023-02-01T08:16:20;2.50;99.90
8172;DHT22;4127;47.908;10.850;2023-02-01T08:18:47;2.60;99.90
8172;DHT22;4127;47.908;10.850;2023-02-01T08:21:28;2.70;99.90
8172;DHT22;4127;47.908;10.850;2023-02-01T08:24:09;2.70;99.90
8172;DHT22;4127;47.908;10.850;2023-02-01T08:26:36;2.70;99.90
8172;DHT22;4127;47.908;10.850;2023-02-01T08:29:05;2.60;99.90
8172;DHT22;4127;47.908;10.850;2023-02-01T08:31:32;2.60;99.90
8172;DHT22;4127;47.908;10.850;2023-02-01T08:34:01;2.70;99.90
8172;DHT22;4127;47.908;10.850;2023-02-01T08:36:29;2.60;99.90
8172;DHT22;4127;47.908;10.850;2023-02-01T08:38:57;2.60;99.90
8172;DHT22;4127;47.908;10.850;2023-02-01T08:41:26;2.70;99.90
8172;DHT22;4127;47.908;10.850;2023-02-01T08:43:53;2.70;99.90
8172;DHT22;4127;47.908;10.850;2023-02-01T08:46:21;2.70;99.90
8172;DHT22;4127;47.908;10.850;2023-02-01T08:48:49;2.80;99.90
8172;DHT22;4127;47.908;10.850;2023-02-01T08:51:17;2.70;99.90
8172;DHT22;4127;47.908;10.850;2023-02-01T08:53:45;2.80;99.90
8172;DHT22;4127;47.908;10.850;2023-02-01T08:56:13;2.80;99.90
8172;DHT22;4127;47.908;10.850;2023-02-01T08:58:41;2.80;99.90
8172;DHT22;4127;47.908;10.850;2023-02-01T09:01:13;2.80;99.90
8172;DHT22;4127;47.908;10.850;2023-02-01T09:03:40;2.80;99.90
8172;DHT22;4127;47.908;10.850;2023-02-01T09:06:10;2.80;99.90
8172;DHT22;4127;47.908;10.850;2023-02-01T09:08:38;2.80;99.90
8172;DHT22;4127;47.908;10.850;2023-02-01T09:11:10;2.90;99.90
8172;DHT22;4127;47.908;10.850;2023-02-01T09:13:38;2.90;99.90
8172;DHT22;4127;47.908;10.850;2023-02-01T09:16:05;2.90;99.90
8172;DHT22;4127;47.908;10.850;2023-02-01T09:18:31;2.90;99.90
8172;DHT22;4127;47.908;10.850;2023-02-01T09:20:58;3.00;99.90
8172;DHT22;4127;47.908;10.850;2023-02-01T09:23:25;3.00;99.90
8172;DHT22;4127;47.908;10.850;2023-02-01T09:25:52;3.00;99.90
8172;DHT22;4127;47.908;10.850;2023-02-01T09:28:19;3.00;99.90
8172;DHT22;4127;47.908;10.850;2023-02-01T09:30:46;3.20;99.90
8172;DHT22;4127;47.908;10.850;2023-02-01T09:33:13;3.00;99.90
8172;DHT22;4127;47.908;10.850;2023-02-01T09:35:40;3.00;99.90
8172;DHT22;4127;47.908;10.850;2023-02-01T09:38:07;3.00;99.90
8172;DHT22;4127;47.908;10.850;2023-02-01T09:40:34;3.10;99.90
8172;DHT22;4127;47.908;10.850;2023-02-01T09:43:19;3.10;99.90
8172;DHT22;4127;47.908;10.850;2023-02-01T09:46:27;3.10;99.90
8172;DHT22;4127;47.908;10.850;2023-02-01T09:48:57;3.10;99.90
8172;DHT22;4127;47.908;10.850;2023-02-01T09:51:34;3.10;99.90
8172;DHT22;4127;47.908;10.850;2023-02-01T09:54:12;3.10;99.90
8172;DHT22;4127;47.908;10.850;2023-02-01T09:56:46;3.20;99.90
8172;DHT22;4127;47.908;10.850;2023-02-01T10:01:59;3.20;99.90
8172;DHT22;4127;47.908;10.850;2023-02-01T10:04:28;3.20;99.90
8172;DHT22;4127;47.908;10.850;2023-02-01T10:07:17;3.20;99.90
8172;DHT22;4127;47.908;10.850;2023-02-01T10:10:01;3.20;99.90
8172;DHT22;4127;47.908;10.850;2023-02-01T10:12:35;3.30;99.90
8172;DHT22;4127;47.908;10.850;2023-02-01T10:15:25;3.30;99.90
8172;DHT22;4127;47.908;10.850;2023-02-01T10:21:00;3.30;99.90
8172;DHT22;4127;47.908;10.850;2023-02-01T10:23:42;3.40;99.90
8172;DHT22;4127;47.908;10.850;2023-02-01T10:28:52;3.40;99.90
8172;DHT22;4127;47.908;10.850;2023-02-01T10:31:21;3.40;99.90
8172;DHT22;4127;47.908;10.850;2023-02-01T10:33:52;3.50;99.90
8172;DHT22;4127;47.908;10.850;2023-02-01T10:36:34;3.50;99.90
8172;DHT22;4127;47.908;10.850;2023-02-01T10:39:03;3.50;99.90
8172;DHT22;4127;47.908;10.850;2023-02-01T10:41:36;3.60;99.90
8172;DHT22;4127;47.908;10.850;2023-02-01T10:44:07;3.70;99.90
8172;DHT22;4127;47.908;10.850;2023-02-01T10:46:37;3.60;99.90
8172;DHT22;4127;47.908;10.850;2023-02-01T10:49:05;3.60;99.90
8172;DHT22;4127;47.908;10.850;2023-02-01T10:51:54;3.60;99.90
8172;DHT22;4127;47.908;10.850;2023-02-01T10:54:35;3.70;99.90
8172;DHT22;4127;47.908;10.850;2023-02-01T10:57:24;3.60;99.90
8172;DHT22;4127;47.908;10.850;2023-02-01T10:59:52;3.60;99.90
8172;DHT22;4127;47.908;10.850;2023-02-01T11:02:39;3.60;99.90
8172;DHT22;4127;47.908;10.850;2023-02-01T11:05:08;3.60;99.90
8172;DHT22;4127;47.908;10.850;2023-02-01T11:07:39;3.70;99.90
8172;DHT22;4127;47.908;10.850;2023-02-01T11:10:41;3.70;99.90
8172;DHT22;4127;47.908;10.850;2023-02-01T11:13:16;3.60;99.90
8172;DHT22;4127;47.908;10.850;2023-02-01T11:15:44;3.80;99.90
8172;DHT22;4127;47.908;10.850;2023-02-01T11:18:26;3.70;99.90
8172;DHT22;4127;47.908;10.850;2023-02-01T11:20:54;3.70;99.90
8172;DHT22;4127;47.908;10.850;2023-02-01T11:23:23;3.80;99.90
8172;DHT22;4127;47.908;10.850;2023-02-01T11:28:22;3.70;99.90
8172;DHT22;4127;47.908;10.850;2023-02-01T11:30:54;3.80;99.90
8172;DHT22;4127;47.908;10.850;2023-02-01T11:33:26;3.60;99.90
8172;DHT22;4127;47.908;10.850;2023-02-01T11:35:58;3.60;99.90
8172;DHT22;4127;47.908;10.850;2023-02-01T11:38:30;3.70;99.90
8172;DHT22;4127;47.908;10.850;2023-02-01T11:41:20;3.80;99.90
8172;DHT22;4127;47.908;10.850;2023-02-01T11:46:26;3.80;99.90
8172;DHT22;4127;47.908;10.850;2023-02-01T11:48:55;3.80;99.90
8172;DHT22;4127;47.908;10.850;2023-02-01T11:51:44;3.80;99.90
8172;DHT22;4127;47.908;10.850;2023-02-01T12:28:06;3.70;99.90
8172;DHT22;4127;47.908;10.850;2023-02-01T12:31:01;3.80;99.90
8172;DHT22;4127;47.908;10.850;2023-02-01T12:37:16;3.70;99.90
8172;DHT22;4127;47.908;10.850;2023-02-01T12:39:39;3.70;99.90
8172;DHT22;4127;47.908;10.850;2023-02-01T12:47:25;3.70;99.90
8172;DHT22;4127;47.908;10.850;2023-02-01T12:50:14;3.60;99.90
8172;DHT22;4127;47.908;10.850;2023-02-01T12:52:48;3.70;99.90
8172;DHT22;4127;47.908;10.850;2023-02-01T12:55:34;3.70;99.90
8172;DHT22;4127;47.908;10.850;2023-02-01T12:58:07;3.80;99.90
8172;DHT22;4127;47.908;10.850;2023-02-01T13:01:01;3.80;99.90
8172;DHT22;4127;47.908;10.850;2023-02-01T13:03:53;3.80;99.90
8172;DHT22;4127;47.908;10.850;2023-02-01T13:06:37;3.70;99.90
8172;DHT22;4127;47.908;10.850;2023-02-01T13:11:37;3.70;99.90
8172;DHT22;4127;47.908;10.850;2023-02-01T13:15:16;3.70;99.90
8172;DHT22;4127;47.908;10.850;2023-02-01T13:17:22;3.70;99.90
8172;DHT22;4127;47.908;10.850;2023-02-01T13:20:44;3.70;99.90
8172;DHT22;4127;47.908;10.850;2023-02-01T13:22:54;3.70;99.90
8172;DHT22;4127;47.908;10.850;2023-02-01T13:28:45;3.60;99.90
8172;DHT22;4127;47.908;10.850;2023-02-01T13:31:44;3.60;99.90
8172;DHT22;4127;47.908;10.850;2023-02-01T13:34:40;3.60;99.90
8172;DHT22;4127;47.908;10.850;2023-02-01T13:39:59;3.70;99.90
8172;DHT22;4127;47.908;10.850;2023-02-01T13:42:34;3.70;99.90
8172;DHT22;4127;47.908;10.850;2023-02-01T13:45:04;3.70;99.90
8172;DHT22;4127;47.908;10.850;2023-02-01T13:50:11;3.60;99.90
8172;DHT22;4127;47.908;10.850;2023-02-01T13:52:42;3.60;99.90
8172;DHT22;4127;47.908;10.850;2023-02-01T13:57:51;3.60;99.90
8172;DHT22;4127;47.908;10.850;2023-02-01T14:00:35;3.60;99.90
8172;DHT22;4127;47.908;10.850;2023-02-01T14:05:54;3.50;99.90
8172;DHT22;4127;47.908;10.850;2023-02-01T14:08:43;3.60;99.90
8172;DHT22;4127;47.908;10.850;2023-02-01T14:11:46;3.50;99.90
8172;DHT22;4127;47.908;10.850;2023-02-01T14:19:32;3.50;99.90
8172;DHT22;4127;47.908;10.850;2023-02-01T14:22:01;3.40;99.90
8172;DHT22;4127;47.908;10.850;2023-02-01T14:24:52;3.50;99.90
8172;DHT22;4127;47.908;10.850;2023-02-01T14:27:26;3.30;99.90
8172;DHT22;4127;47.908;10.850;2023-02-01T14:29:59;3.40;99.90
8172;DHT22;4127;47.908;10.850;2023-02-01T14:32:31;3.30;99.90
8172;DHT22;4127;47.908;10.850;2023-02-01T14:35:02;3.30;99.90
8172;DHT22;4127;47.908;10.850;2023-02-01T14:37:34;3.30;99.90
8172;DHT22;4127;47.908;10.850;2023-02-01T14:40:03;3.30;99.90
8172;DHT22;4127;47.908;10.850;2023-02-01T14:42:43;3.30;99.90
8172;DHT22;4127;47.908;10.850;2023-02-01T14:53:16;3.30;99.90
8172;DHT22;4127;47.908;10.850;2023-02-01T14:56:18;3.30;99.90
8172;DHT22;4127;47.908;10.850;2023-02-01T14:59:09;3.30;99.90
8172;DHT22;4127;47.908;10.850;2023-02-01T15:01:48;3.30;99.90
8172;DHT22;4127;47.908;10.850;2023-02-01T15:04:18;3.30;99.90
8172;DHT22;4127;47.908;10.850;2023-02-01T15:09:37;3.30;99.90
8172;DHT22;4127;47.908;10.850;2023-02-01T15:14:42;3.40;99.90
8172;DHT22;4127;47.908;10.850;2023-02-01T15:17:23;3.30;99.90
8172;DHT22;4127;47.908;10.850;2023-02-01T15:19:55;3.30;99.90
8172;DHT22;4127;47.908;10.850;2023-02-01T15:22:22;3.30;99.90
8172;DHT22;4127;47.908;10.850;2023-02-01T15:24:53;3.30;99.90
8172;DHT22;4127;47.908;10.850;2023-02-01T15:27:20;3.30;99.90
8172;DHT22;4127;47.908;10.850;2023-02-01T15:29:47;3.30;99.90
8172;DHT22;4127;47.908;10.850;2023-02-01T15:32:35;3.40;99.90
8172;DHT22;4127;47.908;10.850;2023-02-01T15:35:02;3.30;99.90
8172;DHT22;4127;47.908;10.850;2023-02-01T15:37:29;3.20;99.90
8172;DHT22;4127;47.908;10.850;2023-02-01T15:42:41;3.20;99.90
8172;DHT22;4127;47.908;10.850;2023-02-01T15:45:20;3.30;99.90
8172;DHT22;4127;47.908;10.850;2023-02-01T15:47:50;3.20;99.90
8172;DHT22;4127;47.908;10.850;2023-02-01T15:50:19;3.30;99.90
8172;DHT22;4127;47.908;10.850;2023-02-01T15:52:50;3.30;99.90
8172;DHT22;4127;47.908;10.850;2023-02-01T15:55:39;3.20;99.90
8172;DHT22;4127;47.908;10.850;2023-02-01T15:58:20;3.20;99.90
8172;DHT22;4127;47.908;10.850;2023-02-01T16:00:56;3.10;99.90
8172;DHT22;4127;47.908;10.850;2023-02-01T16:06:02;3.20;99.90
8172;DHT22;4127;47.908;10.850;2023-02-01T16:08:30;3.20;99.90
8172;DHT22;4127;47.908;10.850;2023-02-01T16:13:41;3.10;99.90
8172;DHT22;4127;47.908;10.850;2023-02-01T16:16:09;3.10;99.90
8172;DHT22;4127;47.908;10.850;2023-02-01T16:18:41;3.10;99.90
8172;DHT22;4127;47.908;10.850;2023-02-01T16:21:08;3.10;99.90
8172;DHT22;4127;47.908;10.850;2023-02-01T16:23:36;3.10;99.90
8172;DHT22;4127;47.908;10.850;2023-02-01T16:26:06;3.10;99.90
8172;DHT22;4127;47.908;10.850;2023-02-01T16:28:33;3.10;99.90
8172;DHT22;4127;47.908;10.850;2023-02-01T16:31:01;3.10;99.90
8172;DHT22;4127;47.908;10.850;2023-02-01T16:33:28;3.10;99.90
8172;DHT22;4127;47.908;10.850;2023-02-01T16:35:56;3.10;99.90
8172;DHT22;4127;47.908;10.850;2023-02-01T16:38:36;3.10;99.90
8172;DHT22;4127;47.908;10.850;2023-02-01T16:41:04;3.10;99.90
8172;DHT22;4127;47.908;10.850;2023-02-01T16:43:32;3.10;99.90
8172;DHT22;4127;47.908;10.850;2023-02-01T16:46:00;3.10;99.90
8172;DHT22;4127;47.908;10.850;2023-02-01T16:48:31;3.10;99.90
8172;DHT22;4127;47.908;10.850;2023-02-01T16:51:08;3.10;99.90
8172;DHT22;4127;47.908;10.850;2023-02-01T16:53:36;3.10;99.90
8172;DHT22;4127;47.908;10.850;2023-02-01T16:56:22;3.10;99.90
8172;DHT22;4127;47.908;10.850;2023-02-01T16:58:49;3.10;99.90
8172;DHT22;4127;47.908;10.850;2023-02-01T17:01:18;3.10;99.90
8172;DHT22;4127;47.908;10.850;2023-02-01T17:03:46;3.10;99.90
8172;DHT22;4127;47.908;10.850;2023-02-01T17:06:16;3.10;99.90
8172;DHT22;4127;47.908;10.850;2023-02-01T17:08:51;3.10;99.90
8172;DHT22;4127;47.908;10.850;2023-02-01T17:11:18;3.10;99.90
8172;DHT22;4127;47.908;10.850;2023-02-01T17:13:45;3.10;99.90
8172;DHT22;4127;47.908;10.850;2023-02-01T17:18:58;3.00;99.90
8172;DHT22;4127;47.908;10.850;2023-02-01T17:21:27;3.10;99.90
8172;DHT22;4127;47.908;10.850;2023-02-01T17:23:55;3.10;99.90
8172;DHT22;4127;47.908;10.850;2023-02-01T17:26:25;3.10;99.90
8172;DHT22;4127;47.908;10.850;2023-02-01T17:28:52;3.10;99.90
8172;DHT22;4127;47.908;10.850;2023-02-01T17:31:19;3.00;99.90
8172;DHT22;4127;47.908;10.850;2023-02-01T17:33:46;3.00;99.90
8172;DHT22;4127;47.908;10.850;2023-02-01T17:36:15;3.10;99.90
8172;DHT22;4127;47.908;10.850;2023-02-01T17:38:43;3.10;99.90
8172;DHT22;4127;47.908;10.850;2023-02-01T17:41:19;3.10;99.90
8172;DHT22;4127;47.908;10.850;2023-02-01T17:43:47;3.10;99.90
8172;DHT22;4127;47.908;10.850;2023-02-01T17:46:17;3.10;99.90
8172;DHT22;4127;47.908;10.850;2023-02-01T17:48:53;3.00;99.90
8172;DHT22;4127;47.908;10.850;2023-02-01T17:51:22;3.10;99.90
8172;DHT22;4127;47.908;10.850;2023-02-01T17:53:50;3.20;99.90
8172;DHT22;4127;47.908;10.850;2023-02-01T17:56:19;3.10;99.90
8172;DHT22;4127;47.908;10.850;2023-02-01T17:58:47;3.20;99.90
8172;DHT22;4127;47.908;10.850;2023-02-01T18:01:23;3.10;99.90
8172;DHT22;4127;47.908;10.850;2023-02-01T18:03:50;3.10;99.90
8172;DHT22;4127;47.908;10.850;2023-02-01T18:06:21;3.10;99.90
8172;DHT22;4127;47.908;10.850;2023-02-01T18:08:48;3.00;99.90
8172;DHT22;4127;47.908;10.850;2023-02-01T18:11:18;3.00;99.90
8172;DHT22;4127;47.908;10.850;2023-02-01T18:13:45;3.00;99.90
8172;DHT22;4127;47.908;10.850;2023-02-01T18:16:18;3.00;99.90
8172;DHT22;4127;47.908;10.850;2023-02-01T18:18:46;3.00;99.90
8172;DHT22;4127;47.908;10.850;2023-02-01T18:21:17;3.00;99.90
8172;DHT22;4127;47.908;10.850;2023-02-01T18:23:44;3.00;99.90
8172;DHT22;4127;47.908;10.850;2023-02-01T18:26:13;3.00;99.90
8172;DHT22;4127;47.908;10.850;2023-02-01T18:28:40;3.00;99.90
8172;DHT22;4127;47.908;10.850;2023-02-01T18:31:31;3.00;99.90
8172;DHT22;4127;47.908;10.850;2023-02-01T18:33:59;3.00;99.90
8172;DHT22;4127;47.908;10.850;2023-02-01T18:36:27;3.00;99.90
8172;DHT22;4127;47.908;10.850;2023-02-01T18:38:55;3.00;99.90
8172;DHT22;4127;47.908;10.850;2023-02-01T18:41:23;3.00;99.90
8172;DHT22;4127;47.908;10.850;2023-02-01T18:43:51;3.00;99.90
8172;DHT22;4127;47.908;10.850;2023-02-01T18:46:18;3.00;99.90
8172;DHT22;4127;47.908;10.850;2023-02-01T18:48:47;3.00;99.90
8172;DHT22;4127;47.908;10.850;2023-02-01T18:51:18;3.00;99.90
8172;DHT22;4127;47.908;10.850;2023-02-01T18:53:46;3.00;99.90
8172;DHT22;4127;47.908;10.850;2023-02-01T18:56:15;3.10;99.90
8172;DHT22;4127;47.908;10.850;2023-02-01T18:58:43;3.00;99.90
8172;DHT22;4127;47.908;10.850;2023-02-01T19:01:15;3.00;99.90
8172;DHT22;4127;47.908;10.850;2023-02-01T19:03:44;3.00;99.90
8172;DHT22;4127;47.908;10.850;2023-02-01T19:06:22;3.10;99.90
8172;DHT22;4127;47.908;10.850;2023-02-01T19:08:49;3.00;99.90
8172;DHT22;4127;47.908;10.850;2023-02-01T19:11:16;3.10;99.90
8172;DHT22;4127;47.908;10.850;2023-02-01T19:13:43;3.10;99.90
8172;DHT22;4127;47.908;10.850;2023-02-01T19:16:12;3.10;99.90
8172;DHT22;4127;47.908;10.850;2023-02-01T19:18:39;3.00;99.90
8172;DHT22;4127;47.908;10.850;2023-02-01T19:21:09;3.00;99.90
8172;DHT22;4127;47.908;10.850;2023-02-01T19:23:39;3.10;99.90
8172;DHT22;4127;47.908;10.850;2023-02-01T19:26:14;3.00;99.90